createdAt,value
2023-04-19T00:02:01.056Z,101153.44
2023-04-19T00:07:23.543Z,101158.69
2023-04-19T00:12:45.711Z,101155.97
2023-04-19T00:18:08.212Z,101160.66
2023-04-19T00:23:30.519Z,101163.75
2023-04-19T00:28:52.849Z,101161.88
2023-04-19T00:34:15.685Z,101174.69
2023-04-19T00:39:40.743Z,101172.44
2023-04-19T00:45:03.167Z,101174.44
2023-04-19T00:50:25.933Z,101178.09
2023-04-19T00:55:51.964Z,101184.19
2023-04-19T01:01:14.291Z,101184.94
2023-04-19T01:06:38.880Z,101177.53
2023-04-19T01:12:03.091Z,101174.00
2023-04-19T01:17:26.873Z,101179.31
2023-04-19T01:22:49.285Z,101172.16
2023-04-19T01:28:11.513Z,101176.06
2023-04-19T01:33:33.604Z,101172.78
2023-04-19T01:38:56.330Z,101189.69
2023-04-19T01:44:18.669Z,101180.66
2023-04-19T01:49:41.729Z,101167.25
2023-04-19T01:55:06.678Z,101151.06
2023-04-19T02:00:31.060Z,101165.34
2023-04-19T02:05:53.206Z,101164.91
2023-04-19T02:11:17.798Z,101156.91
2023-04-19T02:16:39.954Z,101176.31
2023-04-19T02:22:04.637Z,101160.31
2023-04-19T02:27:27.289Z,101192.41
2023-04-19T02:32:50.344Z,101163.75
2023-04-19T02:38:12.297Z,101178.81
2023-04-19T02:43:36.674Z,101158.56
2023-04-19T02:49:01.935Z,101185.78
2023-04-19T02:54:24.145Z,101202.38
2023-04-19T02:59:47.800Z,101201.00
2023-04-19T03:05:12.051Z,101208.81
2023-04-19T03:10:34.195Z,101188.38
2023-04-19T03:15:57.415Z,101209.31
2023-04-19T03:21:19.680Z,101203.09
2023-04-19T03:26:47.682Z,101193.59
2023-04-19T03:32:12.543Z,101199.84
2023-04-19T03:37:35.381Z,101205.66
2023-04-19T03:42:58.770Z,101203.34
2023-04-19T03:48:26.007Z,101206.47
2023-04-19T03:53:48.469Z,101203.91
2023-04-19T03:59:14.308Z,101206.91
2023-04-19T04:04:38.868Z,101207.78
2023-04-19T04:10:03.494Z,101210.69
2023-04-19T04:15:30.326Z,101213.13
2023-04-19T04:20:55.055Z,101214.69
2023-04-19T04:26:20.750Z,101206.34
2023-04-19T04:32:11.594Z,101197.00
2023-04-19T04:37:37.516Z,101189.41
2023-04-19T04:43:05.041Z,101194.00
2023-04-19T04:48:28.883Z,101181.50
2023-04-19T04:53:52.232Z,101177.91
2023-04-19T04:59:15.991Z,101196.88
2023-04-19T05:04:41.890Z,101189.94
2023-04-19T05:10:04.768Z,101191.06
2023-04-19T05:15:37.870Z,101194.41
2023-04-19T05:21:00.208Z,101184.34
2023-04-19T05:26:28.740Z,101173.28
2023-04-19T05:31:56.369Z,101160.59
2023-04-19T05:37:27.810Z,101161.66
2023-04-19T05:42:54.312Z,101172.41
2023-04-19T05:54:24.833Z,101184.41
2023-04-19T05:59:47.041Z,101192.13
2023-04-19T06:05:13.626Z,101196.75
2023-04-19T06:10:52.700Z,101192.31
2023-04-19T06:16:17.817Z,101185.00
2023-04-19T06:21:39.364Z,101184.91
2023-04-19T06:27:02.820Z,101190.19
2023-04-19T06:32:26.376Z,101189.69
2023-04-19T06:37:49.435Z,101191.81
2023-04-19T06:43:12.737Z,101182.97
2023-04-19T06:54:19.561Z,101172.25
2023-04-19T06:59:42.036Z,101176.84
2023-04-19T07:05:04.456Z,101183.84
2023-04-19T07:10:26.470Z,101185.56
2023-04-19T07:15:48.332Z,101178.00
2023-04-19T07:21:12.915Z,101179.75
2023-04-19T07:26:46.218Z,101164.78
2023-04-19T07:32:09.026Z,101170.00
2023-04-19T07:37:33.231Z,101172.66
2023-04-19T07:42:57.451Z,101166.66
2023-04-19T07:48:20.212Z,101156.88
2023-04-19T07:54:02.734Z,101163.06
2023-04-19T07:59:24.885Z,101168.69
2023-04-19T08:04:48.834Z,101176.16
2023-04-19T08:10:11.398Z,101160.97
2023-04-19T08:21:00.392Z,101157.69
2023-04-19T08:26:23.361Z,101152.84
2023-04-19T08:31:45.801Z,101143.84
2023-04-19T08:37:08.458Z,101145.47
2023-04-19T08:42:36.717Z,101130.75
2023-04-19T08:48:02.084Z,101150.00
2023-04-19T08:53:26.221Z,101132.75
2023-04-19T09:09:45.695Z,101123.69
2023-04-19T09:15:17.512Z,101122.81
2023-04-19T09:20:41.789Z,101120.66
2023-04-19T09:31:47.925Z,101101.13
2023-04-19T09:37:22.745Z,101106.03
2023-04-19T09:48:19.924Z,101099.19
2023-04-19T09:53:44.384Z,101087.09
2023-04-19T09:59:20.299Z,101084.63
2023-04-19T10:04:57.394Z,101098.63
2023-04-19T10:10:40.305Z,101080.00
2023-04-19T10:16:18.295Z,101092.16
2023-04-19T10:21:48.181Z,101077.22
2023-04-19T10:27:12.865Z,101090.78
2023-04-19T10:32:43.267Z,101090.78
2023-04-19T10:38:14.199Z,101081.47
2023-04-19T10:43:37.235Z,101073.88
2023-04-19T10:49:01.437Z,101081.38
2023-04-19T10:54:34.773Z,101074.75
2023-04-19T11:00:20.506Z,101062.91
2023-04-19T11:06:27.571Z,101056.66
2023-04-19T11:11:49.234Z,101051.63
2023-04-19T11:17:26.192Z,101046.31
2023-04-19T11:22:48.717Z,101036.88
2023-04-19T11:28:10.849Z,101042.44
2023-04-19T11:33:36.937Z,101044.47
2023-04-19T11:39:02.674Z,101019.81
2023-04-19T11:44:25.019Z,101014.09
2023-04-19T11:49:50.826Z,101041.38
2023-04-19T11:55:19.396Z,101034.88
2023-04-19T12:00:47.801Z,101024.78
2023-04-19T12:06:15.473Z,101034.63
2023-04-19T12:11:46.322Z,101025.03
2023-04-19T12:17:14.094Z,101018.31
2023-04-19T12:22:35.685Z,101014.53
2023-04-19T12:28:01.788Z,101021.16
2023-04-19T12:33:24.069Z,101004.84
2023-04-19T12:38:46.473Z,101013.25
2023-04-19T12:44:08.044Z,101022.00
2023-04-19T12:49:30.103Z,101022.41
2023-04-19T12:54:51.905Z,100998.53
2023-04-19T13:00:14.249Z,101013.00
2023-04-19T13:05:36.054Z,100989.56
2023-04-19T13:11:00.328Z,100979.53
2023-04-19T13:16:23.045Z,100990.41
2023-04-19T13:21:45.622Z,100987.75
2023-04-19T13:27:09.092Z,100965.97
2023-04-19T13:32:31.508Z,100983.00
2023-04-19T13:37:53.352Z,100978.16
2023-04-19T13:43:15.446Z,100999.63
2023-04-19T13:48:37.774Z,101004.03
2023-04-19T14:00:17.036Z,100993.28
2023-04-19T14:05:38.985Z,100996.66
2023-04-19T14:11:01.584Z,100998.75
2023-04-19T14:16:25.767Z,100987.72
2023-04-19T14:21:50.059Z,100988.63
2023-04-19T14:27:14.705Z,101005.75
2023-04-19T14:32:37.451Z,100978.06
2023-04-19T14:37:59.169Z,100980.47
2023-04-19T14:43:21.286Z,100963.22
2023-04-19T14:54:23.934Z,100983.47
2023-04-19T14:59:56.320Z,100959.59
2023-04-19T15:05:19.428Z,100958.09
2023-04-19T15:10:43.814Z,100957.97
2023-04-19T15:16:09.805Z,100955.72
2023-04-19T15:21:31.972Z,100965.56
2023-04-19T15:26:54.476Z,100948.84
2023-04-19T15:32:17.095Z,100963.63
2023-04-19T15:37:42.702Z,100939.72
2023-04-19T15:43:06.136Z,100947.59
2023-04-19T15:48:29.057Z,100949.25
2023-04-19T15:53:53.819Z,100976.47
2023-04-19T15:59:16.490Z,100952.94
2023-04-19T16:04:39.016Z,100961.97
2023-04-19T16:10:01.013Z,100966.53
2023-04-19T16:15:23.676Z,100966.13
2023-04-19T16:20:46.084Z,100964.72
2023-04-19T16:26:08.246Z,100963.50
2023-04-19T16:31:30.223Z,100963.91
2023-04-19T16:36:53.897Z,100980.13
2023-04-19T16:42:15.840Z,100984.25
2023-04-19T16:47:37.848Z,100969.19
2023-04-19T16:53:00.370Z,100952.78
2023-04-19T16:58:22.932Z,100968.41
2023-04-19T17:03:46.244Z,100949.53
2023-04-19T17:09:08.598Z,100960.06
2023-04-19T17:14:30.799Z,100959.72
2023-04-19T17:19:55.966Z,100955.59
2023-04-19T17:25:21.728Z,100960.16
2023-04-19T17:30:44.534Z,100951.16
2023-04-19T17:36:07.682Z,100990.47
2023-04-19T17:41:29.715Z,100959.03
2023-04-19T17:46:51.787Z,100989.16
2023-04-19T18:00:18.107Z,100951.06
2023-04-19T18:06:21.388Z,100941.13
2023-04-19T18:11:44.458Z,100940.72
2023-04-19T18:17:06.896Z,100967.88
2023-04-19T18:22:28.908Z,100989.88
2023-04-19T18:27:51.161Z,100981.03
2023-04-19T18:33:13.466Z,100982.72
2023-04-19T18:38:35.612Z,100963.13
2023-04-19T18:49:26.875Z,100946.94
2023-04-19T18:55:16.173Z,100963.16
2023-04-19T19:00:40.480Z,100961.69
2023-04-19T19:06:03.719Z,100941.00
2023-04-19T19:11:54.241Z,100959.16
2023-04-19T19:17:09.173Z,100947.31
2023-04-19T19:22:31.429Z,100950.63
2023-04-19T19:33:22.013Z,100944.50
2023-04-19T19:38:44.638Z,100938.50
2023-04-19T19:44:07.374Z,100932.63
2023-04-19T19:56:16.498Z,100929.78
2023-04-19T20:01:43.482Z,100933.72
2023-04-19T20:12:31.960Z,100942.44
2023-04-19T20:17:54.488Z,100930.69
2023-04-19T20:23:17.303Z,100940.22
2023-04-19T20:28:39.423Z,100930.84
2023-04-19T20:34:01.730Z,100916.44
2023-04-19T20:39:23.912Z,100934.56
2023-04-19T20:44:45.851Z,100926.69
2023-04-19T20:50:09.282Z,100946.56
2023-04-19T20:55:31.438Z,100937.50
2023-04-19T21:00:53.577Z,100944.56
2023-04-19T21:06:18.835Z,100943.28
2023-04-19T21:11:41.666Z,100941.41
2023-04-19T21:17:04.480Z,100936.63
2023-04-19T21:22:26.450Z,100919.72
2023-04-19T21:27:48.702Z,100922.38
2023-04-19T21:33:10.867Z,100927.91
2023-04-19T21:38:32.523Z,100908.47
2023-04-19T21:43:55.046Z,100904.72
2023-04-19T21:49:17.169Z,100890.75
2023-04-19T21:54:39.406Z,100900.59
2023-04-19T22:00:01.755Z,100903.03
2023-04-19T22:05:25.914Z,100907.28
2023-04-19T22:10:47.659Z,100895.16
2023-04-19T22:16:09.705Z,100896.94
2023-04-19T22:21:33.283Z,100903.34
2023-04-19T22:26:55.103Z,100883.59
2023-04-19T22:32:16.978Z,100891.53
2023-04-19T22:37:38.733Z,100890.16
2023-04-19T22:43:01.331Z,100875.25
2023-04-19T22:48:22.998Z,100885.03
2023-04-19T22:53:45.270Z,100875.50
2023-04-19T22:59:08.915Z,100873.34
2023-04-19T23:50:31.053Z,100866.88
2023-04-19T23:55:52.928Z,100852.81
